Terminal Aerodrome Forecast
Issued by NWS Cleveland, OH

Home | Current Version | Previous Version | Graphics & Text | Print | Product List | Glossary On
Versions: 1 2 3 4 5 6 7 8 9 10 11 12 13 14 15 16 17 18 19 20 21 22
000
FTUS41 KCLE 191100
TAFCAK
TAF
KCAK 191136Z 1912/2012 09005KT P6SM FEW035
      TEMPO 1912/1913 05004KT 4SM BR
     FM192100 14005KT P6SM SCT035
     FM200500 17008KT P6SM SCT250=

USA.gov is the U.S. government's official web portal to all federal, state and local government web resources and services.